sensor_id;sensor_type;location;lat;lon;timestamp;P1;durP1;ratioP1;P2;durP2;ratioP2
76729;SDS011;65653;53.106;18.046;2023-03-17T00:01:36;21.20;;;10.10;;
76729;SDS011;65653;53.106;18.046;2023-03-17T00:04:03;25.10;;;10.60;;
76729;SDS011;65653;53.106;18.046;2023-03-17T00:06:30;37.10;;;14.50;;
76729;SDS011;65653;53.106;18.046;2023-03-17T00:08:59;39.60;;;15.00;;
76729;SDS011;65653;53.106;18.046;2023-03-17T00:11:26;45.80;;;18.60;;
76729;SDS011;65653;53.106;18.046;2023-03-17T00:13:53;42.80;;;18.90;;
76729;SDS011;65653;53.106;18.046;2023-03-17T00:16:22;48.10;;;19.90;;
76729;SDS011;65653;53.106;18.046;2023-03-17T00:18:52;48.40;;;19.60;;
76729;SDS011;65653;53.106;18.046;2023-03-17T00:21:24;43.70;;;18.10;;
76729;SDS011;65653;53.106;18.046;2023-03-17T00:23:54;43.00;;;18.80;;
76729;SDS011;65653;53.106;18.046;2023-03-17T00:26:21;49.10;;;20.40;;
76729;SDS011;65653;53.106;18.046;2023-03-17T00:28:48;23.80;;;10.90;;
76729;SDS011;65653;53.106;18.046;2023-03-17T00:31:17;16.90;;;7.60;;
76729;SDS011;65653;53.106;18.046;2023-03-17T00:33:47;13.20;;;6.10;;
76729;SDS011;65653;53.106;18.046;2023-03-17T00:36:18;13.00;;;5.50;;
76729;SDS011;65653;53.106;18.046;2023-03-17T00:38:47;20.90;;;7.30;;
76729;SDS011;65653;53.106;18.046;2023-03-17T00:41:14;21.60;;;8.60;;
76729;SDS011;65653;53.106;18.046;2023-03-17T00:43:41;31.30;;;14.10;;
76729;SDS011;65653;53.106;18.046;2023-03-17T00:46:12;31.70;;;13.40;;
76729;SDS011;65653;53.106;18.046;2023-03-17T00:48:42;36.00;;;14.90;;
76729;SDS011;65653;53.106;18.046;2023-03-17T00:51:11;31.90;;;13.90;;
76729;SDS011;65653;53.106;18.046;2023-03-17T00:53:38;28.30;;;12.80;;
76729;SDS011;65653;53.106;18.046;2023-03-17T00:56:10;30.50;;;13.30;;
76729;SDS011;65653;53.106;18.046;2023-03-17T00:58:42;28.40;;;13.70;;
76729;SDS011;65653;53.106;18.046;2023-03-17T01:01:10;36.30;;;14.80;;
76729;SDS011;65653;53.106;18.046;2023-03-17T01:03:37;34.90;;;13.30;;
76729;SDS011;65653;53.106;18.046;2023-03-17T01:06:05;34.40;;;13.70;;
76729;SDS011;65653;53.106;18.046;2023-03-17T01:08:36;26.50;;;12.10;;
76729;SDS011;65653;53.106;18.046;2023-03-17T01:11:04;35.00;;;13.40;;
76729;SDS011;65653;53.106;18.046;2023-03-17T01:13:30;38.30;;;15.20;;
76729;SDS011;65653;53.106;18.046;2023-03-17T01:15:57;48.30;;;18.60;;
76729;SDS011;65653;53.106;18.046;2023-03-17T01:18:24;45.10;;;18.60;;
76729;SDS011;65653;53.106;18.046;2023-03-17T01:20:51;33.70;;;15.80;;
76729;SDS011;65653;53.106;18.046;2023-03-17T01:23:18;20.20;;;9.60;;
76729;SDS011;65653;53.106;18.046;2023-03-17T01:25:44;23.50;;;10.40;;
76729;SDS011;65653;53.106;18.046;2023-03-17T01:28:15;30.50;;;13.10;;
76729;SDS011;65653;53.106;18.046;2023-03-17T01:30:43;38.80;;;13.60;;
76729;SDS011;65653;53.106;18.046;2023-03-17T01:33:12;45.60;;;17.50;;
76729;SDS011;65653;53.106;18.046;2023-03-17T01:35:40;52.50;;;20.60;;
76729;SDS011;65653;53.106;18.046;2023-03-17T01:38:09;48.50;;;19.40;;
76729;SDS011;65653;53.106;18.046;2023-03-17T01:40:37;47.80;;;19.20;;
76729;SDS011;65653;53.106;18.046;2023-03-17T01:51:24;14.20;;;6.70;;
76729;SDS011;65653;53.106;18.046;2023-03-17T01:53:58;16.60;;;6.80;;
76729;SDS011;65653;53.106;18.046;2023-03-17T01:56:26;14.90;;;6.50;;
76729;SDS011;65653;53.106;18.046;2023-03-17T01:58:55;43.10;;;14.60;;
76729;SDS011;65653;53.106;18.046;2023-03-17T02:01:26;53.00;;;18.30;;
76729;SDS011;65653;53.106;18.046;2023-03-17T02:03:58;59.80;;;19.90;;
76729;SDS011;65653;53.106;18.046;2023-03-17T02:06:26;53.40;;;19.30;;
76729;SDS011;65653;53.106;18.046;2023-03-17T02:08:53;50.30;;;19.10;;
76729;SDS011;65653;53.106;18.046;2023-03-17T02:11:20;60.80;;;22.40;;
76729;SDS011;65653;53.106;18.046;2023-03-17T02:13:47;42.90;;;18.00;;
76729;SDS011;65653;53.106;18.046;2023-03-17T02:16:14;24.30;;;13.00;;
76729;SDS011;65653;53.106;18.046;2023-03-17T02:18:42;15.20;;;6.10;;
76729;SDS011;65653;53.106;18.046;2023-03-17T02:21:53;15.70;;;6.30;;
76729;SDS011;65653;53.106;18.046;2023-03-17T02:24:01;12.50;;;6.20;;
76729;SDS011;65653;53.106;18.046;2023-03-17T02:26:32;12.80;;;5.30;;
76729;SDS011;65653;53.106;18.046;2023-03-17T02:29:00;34.20;;;11.40;;
76729;SDS011;65653;53.106;18.046;2023-03-17T02:31:28;15.70;;;6.70;;
76729;SDS011;65653;53.106;18.046;2023-03-17T02:33:55;17.30;;;7.30;;
76729;SDS011;65653;53.106;18.046;2023-03-17T02:36:22;24.00;;;9.40;;
76729;SDS011;65653;53.106;18.046;2023-03-17T02:38:50;42.80;;;15.50;;
76729;SDS011;65653;53.106;18.046;2023-03-17T02:41:17;41.30;;;14.70;;
76729;SDS011;65653;53.106;18.046;2023-03-17T02:43:44;34.80;;;11.90;;
76729;SDS011;65653;53.106;18.046;2023-03-17T02:46:12;40.90;;;15.90;;
76729;SDS011;65653;53.106;18.046;2023-03-17T02:48:38;33.90;;;13.80;;
76729;SDS011;65653;53.106;18.046;2023-03-17T02:51:05;25.40;;;10.00;;
76729;SDS011;65653;53.106;18.046;2023-03-17T02:53:32;33.50;;;14.50;;
76729;SDS011;65653;53.106;18.046;2023-03-17T02:55:59;28.00;;;10.10;;
76729;SDS011;65653;53.106;18.046;2023-03-17T02:58:25;35.90;;;11.90;;
76729;SDS011;65653;53.106;18.046;2023-03-17T03:00:52;35.50;;;13.90;;
76729;SDS011;65653;53.106;18.046;2023-03-17T03:03:19;24.70;;;9.00;;
76729;SDS011;65653;53.106;18.046;2023-03-17T03:05:45;20.30;;;8.80;;
76729;SDS011;65653;53.106;18.046;2023-03-17T03:08:12;39.60;;;15.10;;
76729;SDS011;65653;53.106;18.046;2023-03-17T03:10:39;42.80;;;16.20;;
76729;SDS011;65653;53.106;18.046;2023-03-17T03:13:06;39.90;;;16.60;;
76729;SDS011;65653;53.106;18.046;2023-03-17T03:15:33;37.50;;;16.00;;
76729;SDS011;65653;53.106;18.046;2023-03-17T03:18:01;32.40;;;12.90;;
76729;SDS011;65653;53.106;18.046;2023-03-17T03:20:27;30.80;;;12.30;;
76729;SDS011;65653;53.106;18.046;2023-03-17T03:22:54;46.90;;;18.50;;
76729;SDS011;65653;53.106;18.046;2023-03-17T03:25:20;45.80;;;17.80;;
76729;SDS011;65653;53.106;18.046;2023-03-17T03:27:47;41.30;;;14.90;;
76729;SDS011;65653;53.106;18.046;2023-03-17T03:30:14;33.60;;;13.70;;
76729;SDS011;65653;53.106;18.046;2023-03-17T03:32:40;29.90;;;13.20;;
76729;SDS011;65653;53.106;18.046;2023-03-17T03:35:07;21.70;;;8.90;;
76729;SDS011;65653;53.106;18.046;2023-03-17T03:37:33;20.10;;;7.90;;
76729;SDS011;65653;53.106;18.046;2023-03-17T03:40:00;30.00;;;12.80;;
76729;SDS011;65653;53.106;18.046;2023-03-17T03:42:27;24.90;;;10.10;;
76729;SDS011;65653;53.106;18.046;2023-03-17T03:44:54;24.60;;;10.40;;
76729;SDS011;65653;53.106;18.046;2023-03-17T03:47:21;29.70;;;12.60;;
76729;SDS011;65653;53.106;18.046;2023-03-17T03:49:47;18.30;;;8.70;;
76729;SDS011;65653;53.106;18.046;2023-03-17T03:52:14;14.70;;;6.60;;
76729;SDS011;65653;53.106;18.046;2023-03-17T03:54:40;17.80;;;7.80;;
76729;SDS011;65653;53.106;18.046;2023-03-17T03:57:07;29.40;;;9.80;;
76729;SDS011;65653;53.106;18.046;2023-03-17T03:59:33;36.60;;;12.50;;
76729;SDS011;65653;53.106;18.046;2023-03-17T04:02:00;37.50;;;13.40;;
76729;SDS011;65653;53.106;18.046;2023-03-17T04:04:26;25.50;;;9.60;;
76729;SDS011;65653;53.106;18.046;2023-03-17T04:06:53;21.20;;;9.00;;
76729;SDS011;65653;53.106;18.046;2023-03-17T04:09:19;11.70;;;5.80;;
76729;SDS011;65653;53.106;18.046;2023-03-17T04:11:46;12.60;;;5.80;;
76729;SDS011;65653;53.106;18.046;2023-03-17T04:14:12;11.90;;;5.30;;
76729;SDS011;65653;53.106;18.046;2023-03-17T04:16:39;20.40;;;8.30;;
76729;SDS011;65653;53.106;18.046;2023-03-17T04:19:06;22.00;;;8.40;;
76729;SDS011;65653;53.106;18.046;2023-03-17T04:21:34;34.70;;;14.40;;
76729;SDS011;65653;53.106;18.046;2023-03-17T04:24:00;36.10;;;15.00;;
76729;SDS011;65653;53.106;18.046;2023-03-17T04:26:27;31.10;;;12.90;;
76729;SDS011;65653;53.106;18.046;2023-03-17T04:28:54;21.10;;;9.60;;
76729;SDS011;65653;53.106;18.046;2023-03-17T04:31:20;29.30;;;11.80;;
76729;SDS011;65653;53.106;18.046;2023-03-17T04:33:47;21.60;;;8.50;;
76729;SDS011;65653;53.106;18.046;2023-03-17T04:36:16;14.90;;;7.00;;
76729;SDS011;65653;53.106;18.046;2023-03-17T04:38:44;20.00;;;8.00;;
76729;SDS011;65653;53.106;18.046;2023-03-17T04:41:11;16.30;;;6.70;;
76729;SDS011;65653;53.106;18.046;2023-03-17T04:43:38;15.70;;;7.00;;
76729;SDS011;65653;53.106;18.046;2023-03-17T04:46:05;14.40;;;7.00;;
76729;SDS011;65653;53.106;18.046;2023-03-17T04:48:31;16.30;;;6.90;;
76729;SDS011;65653;53.106;18.046;2023-03-17T04:50:58;19.60;;;7.60;;
76729;SDS011;65653;53.106;18.046;2023-03-17T04:53:24;13.00;;;5.90;;
76729;SDS011;65653;53.106;18.046;2023-03-17T04:55:51;23.80;;;8.90;;
76729;SDS011;65653;53.106;18.046;2023-03-17T04:58:18;11.70;;;5.80;;
76729;SDS011;65653;53.106;18.046;2023-03-17T05:00:44;17.50;;;7.60;;
76729;SDS011;65653;53.106;18.046;2023-03-17T05:03:11;20.40;;;8.30;;
76729;SDS011;65653;53.106;18.046;2023-03-17T05:05:37;20.00;;;7.20;;
76729;SDS011;65653;53.106;18.046;2023-03-17T05:08:04;20.70;;;8.30;;
76729;SDS011;65653;53.106;18.046;2023-03-17T05:10:30;15.90;;;7.10;;
76729;SDS011;65653;53.106;18.046;2023-03-17T05:12:57;13.20;;;6.90;;
76729;SDS011;65653;53.106;18.046;2023-03-17T05:15:23;18.60;;;7.00;;
76729;SDS011;65653;53.106;18.046;2023-03-17T05:17:50;15.10;;;7.30;;
76729;SDS011;65653;53.106;18.046;2023-03-17T05:20:16;16.70;;;6.50;;
76729;SDS011;65653;53.106;18.046;2023-03-17T05:22:43;15.70;;;6.90;;
76729;SDS011;65653;53.106;18.046;2023-03-17T05:25:09;20.90;;;9.10;;
76729;SDS011;65653;53.106;18.046;2023-03-17T05:27:36;18.30;;;7.00;;
76729;SDS011;65653;53.106;18.046;2023-03-17T05:30:02;25.00;;;10.30;;
76729;SDS011;65653;53.106;18.046;2023-03-17T05:32:29;14.90;;;7.20;;
76729;SDS011;65653;53.106;18.046;2023-03-17T05:34:57;18.10;;;7.70;;
76729;SDS011;65653;53.106;18.046;2023-03-17T05:37:23;17.80;;;7.40;;
76729;SDS011;65653;53.106;18.046;2023-03-17T05:39:50;19.80;;;7.30;;
76729;SDS011;65653;53.106;18.046;2023-03-17T05:42:18;25.30;;;9.70;;
76729;SDS011;65653;53.106;18.046;2023-03-17T05:44:45;23.60;;;8.50;;
76729;SDS011;65653;53.106;18.046;2023-03-17T05:47:11;19.40;;;6.70;;
76729;SDS011;65653;53.106;18.046;2023-03-17T05:49:38;24.60;;;10.00;;
76729;SDS011;65653;53.106;18.046;2023-03-17T05:52:04;10.30;;;4.80;;
76729;SDS011;65653;53.106;18.046;2023-03-17T05:54:31;19.30;;;8.00;;
76729;SDS011;65653;53.106;18.046;2023-03-17T05:56:57;16.30;;;6.70;;
76729;SDS011;65653;53.106;18.046;2023-03-17T05:59:23;15.70;;;6.80;;
76729;SDS011;65653;53.106;18.046;2023-03-17T06:01:50;18.50;;;7.90;;
76729;SDS011;65653;53.106;18.046;2023-03-17T06:04:17;20.50;;;8.50;;
76729;SDS011;65653;53.106;18.046;2023-03-17T06:06:43;21.30;;;8.90;;
76729;SDS011;65653;53.106;18.046;2023-03-17T06:09:09;17.80;;;8.00;;
76729;SDS011;65653;53.106;18.046;2023-03-17T06:11:36;19.70;;;8.60;;
76729;SDS011;65653;53.106;18.046;2023-03-17T06:14:03;17.90;;;7.10;;
76729;SDS011;65653;53.106;18.046;2023-03-17T06:16:29;15.80;;;7.00;;
76729;SDS011;65653;53.106;18.046;2023-03-17T06:18:58;18.40;;;8.40;;
76729;SDS011;65653;53.106;18.046;2023-03-17T06:21:24;21.30;;;8.10;;
76729;SDS011;65653;53.106;18.046;2023-03-17T06:23:51;18.10;;;7.40;;
76729;SDS011;65653;53.106;18.046;2023-03-17T06:26:17;19.20;;;8.30;;
76729;SDS011;65653;53.106;18.046;2023-03-17T06:28:44;17.50;;;7.60;;
76729;SDS011;65653;53.106;18.046;2023-03-17T06:31:10;18.80;;;7.50;;
76729;SDS011;65653;53.106;18.046;2023-03-17T06:33:37;19.60;;;7.20;;
76729;SDS011;65653;53.106;18.046;2023-03-17T06:36:04;18.00;;;7.90;;
76729;SDS011;65653;53.106;18.046;2023-03-17T06:38:31;17.80;;;7.40;;
76729;SDS011;65653;53.106;18.046;2023-03-17T06:40:57;21.80;;;8.90;;
76729;SDS011;65653;53.106;18.046;2023-03-17T06:43:24;27.20;;;9.70;;
76729;SDS011;65653;53.106;18.046;2023-03-17T06:45:50;19.70;;;9.20;;
76729;SDS011;65653;53.106;18.046;2023-03-17T06:48:17;17.30;;;7.50;;
76729;SDS011;65653;53.106;18.046;2023-03-17T06:50:44;17.60;;;6.80;;
76729;SDS011;65653;53.106;18.046;2023-03-17T06:53:12;26.30;;;10.40;;
76729;SDS011;65653;53.106;18.046;2023-03-17T06:55:39;22.00;;;9.80;;
76729;SDS011;65653;53.106;18.046;2023-03-17T06:58:05;18.30;;;6.90;;
76729;SDS011;65653;53.106;18.046;2023-03-17T07:00:32;17.50;;;8.20;;
76729;SDS011;65653;53.106;18.046;2023-03-17T07:02:58;20.70;;;6.90;;
76729;SDS011;65653;53.106;18.046;2023-03-17T07:05:25;15.80;;;7.10;;
76729;SDS011;65653;53.106;18.046;2023-03-17T07:07:53;15.30;;;7.00;;
76729;SDS011;65653;53.106;18.046;2023-03-17T07:10:22;18.10;;;7.50;;
76729;SDS011;65653;53.106;18.046;2023-03-17T07:12:48;19.00;;;8.30;;
76729;SDS011;65653;53.106;18.046;2023-03-17T07:15:15;17.60;;;6.40;;
76729;SDS011;65653;53.106;18.046;2023-03-17T07:17:42;16.60;;;6.70;;
76729;SDS011;65653;53.106;18.046;2023-03-17T07:20:08;21.20;;;9.00;;
76729;SDS011;65653;53.106;18.046;2023-03-17T07:22:36;21.00;;;8.70;;
76729;SDS011;65653;53.106;18.046;2023-03-17T07:25:03;21.70;;;9.10;;
76729;SDS011;65653;53.106;18.046;2023-03-17T07:27:30;21.60;;;7.90;;
76729;SDS011;65653;53.106;18.046;2023-03-17T07:29:57;21.00;;;9.40;;
76729;SDS011;65653;53.106;18.046;2023-03-17T07:32:26;22.10;;;8.80;;
76729;SDS011;65653;53.106;18.046;2023-03-17T07:34:53;20.90;;;9.10;;
76729;SDS011;65653;53.106;18.046;2023-03-17T07:37:19;22.50;;;9.20;;
76729;SDS011;65653;53.106;18.046;2023-03-17T07:39:46;19.80;;;9.20;;
76729;SDS011;65653;53.106;18.046;2023-03-17T07:42:14;19.60;;;8.80;;
76729;SDS011;65653;53.106;18.046;2023-03-17T07:44:42;23.30;;;9.00;;
76729;SDS011;65653;53.106;18.046;2023-03-17T07:47:09;19.60;;;7.60;;
76729;SDS011;65653;53.106;18.046;2023-03-17T07:49:37;23.30;;;9.70;;
76729;SDS011;65653;53.106;18.046;2023-03-17T07:52:04;18.70;;;8.70;;
76729;SDS011;65653;53.106;18.046;2023-03-17T07:54:32;20.40;;;9.30;;
76729;SDS011;65653;53.106;18.046;2023-03-17T07:56:58;19.70;;;9.00;;
76729;SDS011;65653;53.106;18.046;2023-03-17T07:59:25;19.30;;;7.70;;
76729;SDS011;65653;53.106;18.046;2023-03-17T08:01:52;18.00;;;7.90;;
76729;SDS011;65653;53.106;18.046;2023-03-17T08:04:18;19.60;;;9.70;;
76729;SDS011;65653;53.106;18.046;2023-03-17T08:06:45;19.00;;;9.20;;
76729;SDS011;65653;53.106;18.046;2023-03-17T08:09:11;14.80;;;7.40;;
76729;SDS011;65653;53.106;18.046;2023-03-17T08:11:38;11.80;;;5.90;;
76729;SDS011;65653;53.106;18.046;2023-03-17T08:14:06;11.10;;;5.80;;
76729;SDS011;65653;53.106;18.046;2023-03-17T08:16:35;11.50;;;5.10;;
76729;SDS011;65653;53.106;18.046;2023-03-17T08:19:02;15.70;;;7.00;;
76729;SDS011;65653;53.106;18.046;2023-03-17T08:21:29;13.30;;;6.40;;
76729;SDS011;65653;53.106;18.046;2023-03-17T08:23:56;10.40;;;5.50;;
76729;SDS011;65653;53.106;18.046;2023-03-17T08:26:22;13.90;;;5.30;;
76729;SDS011;65653;53.106;18.046;2023-03-17T08:28:49;13.60;;;6.10;;
76729;SDS011;65653;53.106;18.046;2023-03-17T08:31:17;14.50;;;6.10;;
76729;SDS011;65653;53.106;18.046;2023-03-17T08:33:51;13.20;;;5.60;;
76729;SDS011;65653;53.106;18.046;2023-03-17T08:36:20;11.80;;;6.80;;
76729;SDS011;65653;53.106;18.046;2023-03-17T08:38:47;12.80;;;5.90;;
76729;SDS011;65653;53.106;18.046;2023-03-17T08:41:15;15.00;;;6.10;;
76729;SDS011;65653;53.106;18.046;2023-03-17T08:43:44;9.70;;;4.70;;
76729;SDS011;65653;53.106;18.046;2023-03-17T08:46:12;11.80;;;5.40;;
76729;SDS011;65653;53.106;18.046;2023-03-17T08:48:42;11.80;;;6.00;;
76729;SDS011;65653;53.106;18.046;2023-03-17T08:51:10;8.20;;;4.50;;
76729;SDS011;65653;53.106;18.046;2023-03-17T08:53:39;17.90;;;6.40;;
76729;SDS011;65653;53.106;18.046;2023-03-17T08:56:06;12.10;;;5.60;;
76729;SDS011;65653;53.106;18.046;2023-03-17T08:58:36;9.20;;;4.70;;
76729;SDS011;65653;53.106;18.046;2023-03-17T09:01:07;10.80;;;4.70;;
76729;SDS011;65653;53.106;18.046;2023-03-17T09:03:36;14.90;;;5.40;;
76729;SDS011;65653;53.106;18.046;2023-03-17T09:06:05;15.60;;;4.50;;
76729;SDS011;65653;53.106;18.046;2023-03-17T09:08:33;11.30;;;4.40;;
76729;SDS011;65653;53.106;18.046;2023-03-17T09:11:00;10.60;;;4.70;;
76729;SDS011;65653;53.106;18.046;2023-03-17T09:13:28;8.40;;;5.00;;
76729;SDS011;65653;53.106;18.046;2023-03-17T09:15:55;8.90;;;4.30;;
76729;SDS011;65653;53.106;18.046;2023-03-17T09:18:21;10.20;;;5.10;;
76729;SDS011;65653;53.106;18.046;2023-03-17T09:20:48;10.60;;;4.30;;
76729;SDS011;65653;53.106;18.046;2023-03-17T09:23:14;9.00;;;4.40;;
76729;SDS011;65653;53.106;18.046;2023-03-17T09:25:41;11.20;;;4.30;;
76729;SDS011;65653;53.106;18.046;2023-03-17T09:28:10;9.20;;;4.40;;
76729;SDS011;65653;53.106;18.046;2023-03-17T09:30:40;11.70;;;4.90;;
76729;SDS011;65653;53.106;18.046;2023-03-17T09:33:10;9.60;;;5.00;;
76729;SDS011;65653;53.106;18.046;2023-03-17T09:35:39;9.80;;;4.40;;
76729;SDS011;65653;53.106;18.046;2023-03-17T09:38:06;11.20;;;6.20;;
76729;SDS011;65653;53.106;18.046;2023-03-17T09:40:36;12.50;;;4.80;;
76729;SDS011;65653;53.106;18.046;2023-03-17T09:45:54;10.30;;;5.60;;
76729;SDS011;65653;53.106;18.046;2023-03-17T09:48:30;11.30;;;5.60;;
76729;SDS011;65653;53.106;18.046;2023-03-17T09:51:11;12.10;;;6.20;;
76729;SDS011;65653;53.106;18.046;2023-03-17T09:56:25;11.90;;;5.70;;
76729;SDS011;65653;53.106;18.046;2023-03-17T09:59:19;10.10;;;4.90;;
76729;SDS011;65653;53.106;18.046;2023-03-17T10:01:59;10.70;;;5.20;;
76729;SDS011;65653;53.106;18.046;2023-03-17T10:04:26;10.60;;;5.00;;
76729;SDS011;65653;53.106;18.046;2023-03-17T10:07:00;13.20;;;5.90;;
76729;SDS011;65653;53.106;18.046;2023-03-17T10:09:33;11.10;;;5.10;;
76729;SDS011;65653;53.106;18.046;2023-03-17T10:15:03;9.40;;;4.40;;
76729;SDS011;65653;53.106;18.046;2023-03-17T10:17:38;10.20;;;4.70;;
76729;SDS011;65653;53.106;18.046;2023-03-17T10:20:15;9.20;;;4.80;;
76729;SDS011;65653;53.106;18.046;2023-03-17T10:22:48;11.80;;;4.90;;
76729;SDS011;65653;53.106;18.046;2023-03-17T10:25:22;10.50;;;4.70;;
76729;SDS011;65653;53.106;18.046;2023-03-17T10:27:58;10.00;;;4.60;;
76729;SDS011;65653;53.106;18.046;2023-03-17T10:30:29;12.40;;;4.70;;
76729;SDS011;65653;53.106;18.046;2023-03-17T10:32:59;12.30;;;6.00;;
76729;SDS011;65653;53.106;18.046;2023-03-17T10:35:27;11.30;;;5.40;;
76729;SDS011;65653;53.106;18.046;2023-03-17T10:37:58;13.40;;;5.40;;
76729;SDS011;65653;53.106;18.046;2023-03-17T10:40:28;9.50;;;5.40;;
76729;SDS011;65653;53.106;18.046;2023-03-17T10:43:03;8.00;;;3.90;;
76729;SDS011;65653;53.106;18.046;2023-03-17T10:45:35;9.10;;;4.60;;
76729;SDS011;65653;53.106;18.046;2023-03-17T10:48:15;9.00;;;4.10;;
76729;SDS011;65653;53.106;18.046;2023-03-17T10:50:45;8.90;;;4.50;;
76729;SDS011;65653;53.106;18.046;2023-03-17T10:53:19;9.90;;;4.70;;
76729;SDS011;65653;53.106;18.046;2023-03-17T10:56:05;8.20;;;3.60;;
76729;SDS011;65653;53.106;18.046;2023-03-17T10:58:38;10.40;;;5.60;;
76729;SDS011;65653;53.106;18.046;2023-03-17T11:01:16;7.60;;;4.20;;
76729;SDS011;65653;53.106;18.046;2023-03-17T11:03:54;9.30;;;3.70;;
76729;SDS011;65653;53.106;18.046;2023-03-17T11:09:19;7.40;;;3.80;;
76729;SDS011;65653;53.106;18.046;2023-03-17T11:11:47;8.10;;;4.00;;
76729;SDS011;65653;53.106;18.046;2023-03-17T11:14:24;9.00;;;4.60;;
76729;SDS011;65653;53.106;18.046;2023-03-17T11:16:59;7.20;;;3.70;;
76729;SDS011;65653;53.106;18.046;2023-03-17T11:19:30;9.00;;;4.30;;
76729;SDS011;65653;53.106;18.046;2023-03-17T11:22:14;9.80;;;5.30;;
76729;SDS011;65653;53.106;18.046;2023-03-17T11:24:55;8.70;;;4.20;;
76729;SDS011;65653;53.106;18.046;2023-03-17T11:27:34;6.90;;;3.70;;
76729;SDS011;65653;53.106;18.046;2023-03-17T11:35:48;7.70;;;4.40;;
76729;SDS011;65653;53.106;18.046;2023-03-17T11:46:28;11.50;;;5.60;;
76729;SDS011;65653;53.106;18.046;2023-03-17T11:51:48;8.20;;;4.70;;
76729;SDS011;65653;53.106;18.046;2023-03-17T11:57:27;8.10;;;4.90;;
76729;SDS011;65653;53.106;18.046;2023-03-17T12:00:01;8.90;;;4.70;;
76729;SDS011;65653;53.106;18.046;2023-03-17T12:05:04;6.80;;;4.70;;
76729;SDS011;65653;53.106;18.046;2023-03-17T12:07:39;8.30;;;5.10;;
76729;SDS011;65653;53.106;18.046;2023-03-17T12:10:22;7.00;;;4.80;;
76729;SDS011;65653;53.106;18.046;2023-03-17T12:13:01;7.10;;;5.10;;
76729;SDS011;65653;53.106;18.046;2023-03-17T12:15:37;7.90;;;5.20;;
76729;SDS011;65653;53.106;18.046;2023-03-17T12:18:31;9.00;;;5.30;;
76729;SDS011;65653;53.106;18.046;2023-03-17T12:21:11;7.50;;;5.00;;
76729;SDS011;65653;53.106;18.046;2023-03-17T12:24:00;10.10;;;5.20;;
76729;SDS011;65653;53.106;18.046;2023-03-17T12:26:48;7.60;;;5.00;;
76729;SDS011;65653;53.106;18.046;2023-03-17T12:29:38;8.70;;;5.10;;
76729;SDS011;65653;53.106;18.046;2023-03-17T12:32:20;7.60;;;5.20;;
76729;SDS011;65653;53.106;18.046;2023-03-17T12:34:52;8.60;;;5.30;;
76729;SDS011;65653;53.106;18.046;2023-03-17T12:37:22;9.60;;;5.60;;
76729;SDS011;65653;53.106;18.046;2023-03-17T12:39:54;6.60;;;5.30;;
76729;SDS011;65653;53.106;18.046;2023-03-17T12:42:36;7.20;;;4.80;;
76729;SDS011;65653;53.106;18.046;2023-03-17T12:53:41;6.80;;;4.10;;
76729;SDS011;65653;53.106;18.046;2023-03-17T12:56:18;6.60;;;4.10;;
76729;SDS011;65653;53.106;18.046;2023-03-17T12:58:47;5.10;;;3.40;;
76729;SDS011;65653;53.106;18.046;2023-03-17T13:04:02;7.40;;;3.90;;
76729;SDS011;65653;53.106;18.046;2023-03-17T13:11:58;4.90;;;3.40;;
76729;SDS011;65653;53.106;18.046;2023-03-17T13:14:45;6.80;;;3.40;;
76729;SDS011;65653;53.106;18.046;2023-03-17T13:19:46;4.80;;;3.20;;
76729;SDS011;65653;53.106;18.046;2023-03-17T13:22:33;5.60;;;3.30;;
76729;SDS011;65653;53.106;18.046;2023-03-17T13:48:46;5.30;;;3.20;;
76729;SDS011;65653;53.106;18.046;2023-03-17T13:51:21;4.90;;;3.10;;
76729;SDS011;65653;53.106;18.046;2023-03-17T13:56:23;4.70;;;3.20;;
76729;SDS011;65653;53.106;18.046;2023-03-17T13:59:15;6.50;;;3.30;;
76729;SDS011;65653;53.106;18.046;2023-03-17T14:01:48;6.10;;;3.30;;
76729;SDS011;65653;53.106;18.046;2023-03-17T14:04:27;4.40;;;3.20;;
76729;SDS011;65653;53.106;18.046;2023-03-17T14:07:51;5.00;;;3.00;;
76729;SDS011;65653;53.106;18.046;2023-03-17T14:14:15;3.80;;;3.00;;
76729;SDS011;65653;53.106;18.046;2023-03-17T14:16:56;7.20;;;3.80;;
76729;SDS011;65653;53.106;18.046;2023-03-17T14:19:28;4.60;;;2.80;;
76729;SDS011;65653;53.106;18.046;2023-03-17T14:22:00;6.30;;;3.20;;
76729;SDS011;65653;53.106;18.046;2023-03-17T14:24:30;4.70;;;3.20;;
76729;SDS011;65653;53.106;18.046;2023-03-17T14:27:03;4.70;;;2.90;;
76729;SDS011;65653;53.106;18.046;2023-03-17T14:43:33;6.60;;;3.40;;
76729;SDS011;65653;53.106;18.046;2023-03-17T14:46:04;5.10;;;3.00;;
76729;SDS011;65653;53.106;18.046;2023-03-17T14:48:33;7.50;;;3.60;;
76729;SDS011;65653;53.106;18.046;2023-03-17T14:51:02;6.10;;;3.10;;
76729;SDS011;65653;53.106;18.046;2023-03-17T14:53:32;5.90;;;3.10;;
76729;SDS011;65653;53.106;18.046;2023-03-17T14:56:00;5.40;;;2.80;;
76729;SDS011;65653;53.106;18.046;2023-03-17T14:58:29;5.80;;;2.90;;
76729;SDS011;65653;53.106;18.046;2023-03-17T15:01:04;5.70;;;3.00;;
76729;SDS011;65653;53.106;18.046;2023-03-17T15:03:33;8.10;;;4.00;;
76729;SDS011;65653;53.106;18.046;2023-03-17T15:06:18;6.60;;;3.50;;
76729;SDS011;65653;53.106;18.046;2023-03-17T15:08:47;6.00;;;3.40;;
76729;SDS011;65653;53.106;18.046;2023-03-17T15:11:36;7.10;;;3.50;;
76729;SDS011;65653;53.106;18.046;2023-03-17T15:14:12;7.70;;;3.60;;
76729;SDS011;65653;53.106;18.046;2023-03-17T15:16:44;5.30;;;3.40;;
76729;SDS011;65653;53.106;18.046;2023-03-17T15:19:21;5.70;;;3.40;;
76729;SDS011;65653;53.106;18.046;2023-03-17T15:21:52;7.40;;;3.20;;
76729;SDS011;65653;53.106;18.046;2023-03-17T15:24:31;5.40;;;3.30;;
76729;SDS011;65653;53.106;18.046;2023-03-17T15:27:02;5.60;;;3.00;;
76729;SDS011;65653;53.106;18.046;2023-03-17T15:29:38;7.50;;;4.10;;
76729;SDS011;65653;53.106;18.046;2023-03-17T15:32:08;6.50;;;3.60;;
76729;SDS011;65653;53.106;18.046;2023-03-17T15:34:45;7.10;;;3.50;;
76729;SDS011;65653;53.106;18.046;2023-03-17T15:39:41;4.80;;;2.90;;
76729;SDS011;65653;53.106;18.046;2023-03-17T15:42:07;5.40;;;3.10;;
76729;SDS011;65653;53.106;18.046;2023-03-17T15:44:33;6.60;;;3.30;;
76729;SDS011;65653;53.106;18.046;2023-03-17T15:46:59;4.70;;;2.90;;
76729;SDS011;65653;53.106;18.046;2023-03-17T15:49:25;5.30;;;3.40;;
76729;SDS011;65653;53.106;18.046;2023-03-17T15:51:51;7.40;;;3.20;;
76729;SDS011;65653;53.106;18.046;2023-03-17T15:54:17;7.00;;;3.60;;
76729;SDS011;65653;53.106;18.046;2023-03-17T15:56:43;5.50;;;3.10;;
76729;SDS011;65653;53.106;18.046;2023-03-17T15:59:09;4.70;;;2.70;;
76729;SDS011;65653;53.106;18.046;2023-03-17T16:01:35;6.60;;;3.30;;
76729;SDS011;65653;53.106;18.046;2023-03-17T16:04:03;6.80;;;3.40;;
76729;SDS011;65653;53.106;18.046;2023-03-17T16:06:32;5.90;;;3.30;;
76729;SDS011;65653;53.106;18.046;2023-03-17T16:08:59;8.10;;;3.30;;
76729;SDS011;65653;53.106;18.046;2023-03-17T16:11:25;6.70;;;2.90;;
76729;SDS011;65653;53.106;18.046;2023-03-17T16:13:56;7.60;;;3.10;;
76729;SDS011;65653;53.106;18.046;2023-03-17T16:16:29;8.10;;;3.70;;
76729;SDS011;65653;53.106;18.046;2023-03-17T16:18:59;7.40;;;3.50;;
76729;SDS011;65653;53.106;18.046;2023-03-17T16:21:45;8.70;;;3.80;;
76729;SDS011;65653;53.106;18.046;2023-03-17T16:24:16;8.10;;;3.70;;
76729;SDS011;65653;53.106;18.046;2023-03-17T16:32:04;7.40;;;3.20;;